sensor_id;sensor_type;location;lat;lon;timestamp;P1;durP1;ratioP1;P2;durP2;ratioP2
21301;SDS011;10810;48.270;9.996;2023-10-09T00:02:06;17.93;;;4.10;;
21301;SDS011;10810;48.270;9.996;2023-10-09T00:04:34;12.27;;;3.80;;
21301;SDS011;10810;48.270;9.996;2023-10-09T00:07:06;11.50;;;3.83;;
21301;SDS011;10810;48.270;9.996;2023-10-09T00:09:36;10.93;;;3.50;;
21301;SDS011;10810;48.270;9.996;2023-10-09T00:12:14;12.80;;;3.80;;
21301;SDS011;10810;48.270;9.996;2023-10-09T00:14:41;13.77;;;3.90;;
21301;SDS011;10810;48.270;9.996;2023-10-09T00:17:13;14.37;;;3.80;;
21301;SDS011;10810;48.270;9.996;2023-10-09T00:19:43;11.07;;;3.80;;
21301;SDS011;10810;48.270;9.996;2023-10-09T00:22:13;15.87;;;3.80;;
21301;SDS011;10810;48.270;9.996;2023-10-09T00:24:51;10.83;;;3.67;;
21301;SDS011;10810;48.270;9.996;2023-10-09T00:27:36;17.13;;;3.87;;
21301;SDS011;10810;48.270;9.996;2023-10-09T00:30:07;15.73;;;4.10;;
21301;SDS011;10810;48.270;9.996;2023-10-09T00:32:40;14.50;;;4.20;;
21301;SDS011;10810;48.270;9.996;2023-10-09T00:35:15;9.57;;;3.77;;
21301;SDS011;10810;48.270;9.996;2023-10-09T00:38:00;9.50;;;3.63;;
21301;SDS011;10810;48.270;9.996;2023-10-09T00:40:45;11.43;;;3.67;;
21301;SDS011;10810;48.270;9.996;2023-10-09T00:43:14;13.80;;;4.67;;
21301;SDS011;10810;48.270;9.996;2023-10-09T00:45:44;13.67;;;4.17;;
21301;SDS011;10810;48.270;9.996;2023-10-09T00:48:16;12.77;;;3.80;;
21301;SDS011;10810;48.270;9.996;2023-10-09T00:50:51;14.97;;;4.80;;
21301;SDS011;10810;48.270;9.996;2023-10-09T00:53:19;11.80;;;4.07;;
21301;SDS011;10810;48.270;9.996;2023-10-09T00:55:56;13.80;;;4.10;;
21301;SDS011;10810;48.270;9.996;2023-10-09T00:58:30;19.00;;;4.30;;
21301;SDS011;10810;48.270;9.996;2023-10-09T01:01:01;14.27;;;4.27;;
21301;SDS011;10810;48.270;9.996;2023-10-09T01:03:34;10.83;;;4.27;;
21301;SDS011;10810;48.270;9.996;2023-10-09T01:06:05;13.47;;;4.27;;
21301;SDS011;10810;48.270;9.996;2023-10-09T01:08:41;17.53;;;4.47;;
21301;SDS011;10810;48.270;9.996;2023-10-09T01:11:11;15.33;;;4.20;;
21301;SDS011;10810;48.270;9.996;2023-10-09T01:13:45;12.77;;;3.97;;
21301;SDS011;10810;48.270;9.996;2023-10-09T01:16:21;15.97;;;4.53;;
21301;SDS011;10810;48.270;9.996;2023-10-09T01:18:49;14.23;;;4.23;;
21301;SDS011;10810;48.270;9.996;2023-10-09T01:21:17;14.23;;;4.50;;
21301;SDS011;10810;48.270;9.996;2023-10-09T01:23:50;14.40;;;4.63;;
21301;SDS011;10810;48.270;9.996;2023-10-09T01:29:20;14.53;;;4.10;;
21301;SDS011;10810;48.270;9.996;2023-10-09T01:31:53;15.10;;;4.27;;
21301;SDS011;10810;48.270;9.996;2023-10-09T01:34:21;19.17;;;4.07;;
21301;SDS011;10810;48.270;9.996;2023-10-09T01:37:03;19.03;;;4.40;;
21301;SDS011;10810;48.270;9.996;2023-10-09T01:39:38;15.73;;;4.57;;
21301;SDS011;10810;48.270;9.996;2023-10-09T01:42:07;17.93;;;4.40;;
21301;SDS011;10810;48.270;9.996;2023-10-09T01:44:35;12.80;;;4.10;;
21301;SDS011;10810;48.270;9.996;2023-10-09T01:47:08;10.27;;;4.53;;
21301;SDS011;10810;48.270;9.996;2023-10-09T01:49:43;12.80;;;4.13;;
21301;SDS011;10810;48.270;9.996;2023-10-09T01:52:14;18.77;;;4.80;;
21301;SDS011;10810;48.270;9.996;2023-10-09T01:54:43;16.53;;;4.70;;
21301;SDS011;10810;48.270;9.996;2023-10-09T01:57:14;18.63;;;4.37;;
21301;SDS011;10810;48.270;9.996;2023-10-09T01:59:46;22.60;;;5.10;;
21301;SDS011;10810;48.270;9.996;2023-10-09T02:02:15;18.53;;;4.70;;
21301;SDS011;10810;48.270;9.996;2023-10-09T02:04:51;19.10;;;4.83;;
21301;SDS011;10810;48.270;9.996;2023-10-09T02:07:20;18.57;;;4.27;;
21301;SDS011;10810;48.270;9.996;2023-10-09T02:09:56;14.03;;;4.23;;
21301;SDS011;10810;48.270;9.996;2023-10-09T02:12:23;17.97;;;4.60;;
21301;SDS011;10810;48.270;9.996;2023-10-09T02:14:52;16.73;;;4.73;;
21301;SDS011;10810;48.270;9.996;2023-10-09T02:17:21;18.73;;;4.83;;
21301;SDS011;10810;48.270;9.996;2023-10-09T02:19:54;18.50;;;5.10;;
21301;SDS011;10810;48.270;9.996;2023-10-09T02:22:22;18.73;;;4.37;;
21301;SDS011;10810;48.270;9.996;2023-10-09T02:24:51;19.37;;;4.60;;
21301;SDS011;10810;48.270;9.996;2023-10-09T02:27:26;16.80;;;4.20;;
21301;SDS011;10810;48.270;9.996;2023-10-09T02:30:09;17.73;;;4.30;;
21301;SDS011;10810;48.270;9.996;2023-10-09T02:32:52;19.17;;;4.30;;
21301;SDS011;10810;48.270;9.996;2023-10-09T02:35:32;18.43;;;4.30;;
21301;SDS011;10810;48.270;9.996;2023-10-09T02:38:03;18.33;;;4.47;;
21301;SDS011;10810;48.270;9.996;2023-10-09T02:40:35;16.50;;;4.37;;
21301;SDS011;10810;48.270;9.996;2023-10-09T02:43:27;19.00;;;4.63;;
21301;SDS011;10810;48.270;9.996;2023-10-09T02:45:59;11.73;;;4.03;;
21301;SDS011;10810;48.270;9.996;2023-10-09T02:48:31;15.50;;;4.07;;
21301;SDS011;10810;48.270;9.996;2023-10-09T02:51:01;17.90;;;4.30;;
21301;SDS011;10810;48.270;9.996;2023-10-09T02:53:28;19.80;;;4.13;;
21301;SDS011;10810;48.270;9.996;2023-10-09T02:56:00;14.90;;;4.10;;
21301;SDS011;10810;48.270;9.996;2023-10-09T02:58:39;15.13;;;4.27;;
21301;SDS011;10810;48.270;9.996;2023-10-09T03:01:11;16.80;;;3.97;;
21301;SDS011;10810;48.270;9.996;2023-10-09T03:03:39;11.50;;;3.90;;
21301;SDS011;10810;48.270;9.996;2023-10-09T03:06:10;16.43;;;3.67;;
21301;SDS011;10810;48.270;9.996;2023-10-09T03:08:37;20.97;;;4.37;;
21301;SDS011;10810;48.270;9.996;2023-10-09T03:11:06;14.60;;;3.80;;
21301;SDS011;10810;48.270;9.996;2023-10-09T03:13:40;14.87;;;3.87;;
21301;SDS011;10810;48.270;9.996;2023-10-09T03:16:10;15.97;;;4.10;;
21301;SDS011;10810;48.270;9.996;2023-10-09T03:18:44;19.57;;;4.13;;
21301;SDS011;10810;48.270;9.996;2023-10-09T03:21:12;12.47;;;3.70;;
21301;SDS011;10810;48.270;9.996;2023-10-09T03:23:43;17.00;;;4.07;;
21301;SDS011;10810;48.270;9.996;2023-10-09T03:26:14;14.00;;;4.17;;
21301;SDS011;10810;48.270;9.996;2023-10-09T03:28:44;19.73;;;4.37;;
21301;SDS011;10810;48.270;9.996;2023-10-09T03:31:11;12.03;;;3.90;;
21301;SDS011;10810;48.270;9.996;2023-10-09T03:33:39;10.60;;;3.67;;
21301;SDS011;10810;48.270;9.996;2023-10-09T03:36:06;17.40;;;3.73;;
21301;SDS011;10810;48.270;9.996;2023-10-09T03:38:35;14.67;;;4.03;;
21301;SDS011;10810;48.270;9.996;2023-10-09T03:41:03;14.83;;;3.60;;
21301;SDS011;10810;48.270;9.996;2023-10-09T03:43:32;20.20;;;4.20;;
21301;SDS011;10810;48.270;9.996;2023-10-09T03:46:07;17.50;;;3.90;;
21301;SDS011;10810;48.270;9.996;2023-10-09T03:48:40;18.37;;;4.37;;
21301;SDS011;10810;48.270;9.996;2023-10-09T03:51:08;18.73;;;3.80;;
21301;SDS011;10810;48.270;9.996;2023-10-09T03:53:37;15.87;;;3.80;;
21301;SDS011;10810;48.270;9.996;2023-10-09T03:56:07;22.77;;;4.23;;
21301;SDS011;10810;48.270;9.996;2023-10-09T03:58:38;16.73;;;3.77;;
21301;SDS011;10810;48.270;9.996;2023-10-09T04:01:09;15.60;;;3.50;;
21301;SDS011;10810;48.270;9.996;2023-10-09T04:03:42;15.90;;;3.97;;
21301;SDS011;10810;48.270;9.996;2023-10-09T04:06:09;23.23;;;4.30;;
21301;SDS011;10810;48.270;9.996;2023-10-09T04:08:40;16.67;;;3.67;;
21301;SDS011;10810;48.270;9.996;2023-10-09T04:11:16;18.40;;;3.80;;
21301;SDS011;10810;48.270;9.996;2023-10-09T04:13:48;16.47;;;3.37;;
21301;SDS011;10810;48.270;9.996;2023-10-09T04:16:18;17.30;;;3.80;;
21301;SDS011;10810;48.270;9.996;2023-10-09T04:19:16;18.83;;;3.93;;
21301;SDS011;10810;48.270;9.996;2023-10-09T04:21:47;18.67;;;4.03;;
21301;SDS011;10810;48.270;9.996;2023-10-09T04:24:13;13.87;;;3.57;;
21301;SDS011;10810;48.270;9.996;2023-10-09T04:26:50;19.83;;;3.50;;
21301;SDS011;10810;48.270;9.996;2023-10-09T04:29:23;13.40;;;3.47;;
21301;SDS011;10810;48.270;9.996;2023-10-09T04:32:04;13.57;;;3.60;;
21301;SDS011;10810;48.270;9.996;2023-10-09T04:34:41;15.90;;;4.17;;
21301;SDS011;10810;48.270;9.996;2023-10-09T04:37:13;17.33;;;3.40;;
21301;SDS011;10810;48.270;9.996;2023-10-09T04:40:01;18.83;;;3.80;;
21301;SDS011;10810;48.270;9.996;2023-10-09T04:42:37;15.97;;;3.47;;
21301;SDS011;10810;48.270;9.996;2023-10-09T04:45:04;11.77;;;3.20;;
21301;SDS011;10810;48.270;9.996;2023-10-09T04:48:20;19.33;;;3.60;;
21301;SDS011;10810;48.270;9.996;2023-10-09T04:50:57;18.20;;;3.40;;
21301;SDS011;10810;48.270;9.996;2023-10-09T04:53:45;15.53;;;3.37;;
21301;SDS011;10810;48.270;9.996;2023-10-09T04:56:13;15.97;;;3.07;;
21301;SDS011;10810;48.270;9.996;2023-10-09T04:58:42;13.80;;;3.50;;
21301;SDS011;10810;48.270;9.996;2023-10-09T05:01:11;17.77;;;3.80;;
21301;SDS011;10810;48.270;9.996;2023-10-09T05:03:42;15.73;;;3.03;;
21301;SDS011;10810;48.270;9.996;2023-10-09T05:06:21;12.70;;;3.27;;
21301;SDS011;10810;48.270;9.996;2023-10-09T05:09:06;16.47;;;3.10;;
21301;SDS011;10810;48.270;9.996;2023-10-09T05:11:39;21.20;;;3.73;;
21301;SDS011;10810;48.270;9.996;2023-10-09T05:14:34;17.37;;;3.57;;
21301;SDS011;10810;48.270;9.996;2023-10-09T05:17:07;22.50;;;3.20;;
21301;SDS011;10810;48.270;9.996;2023-10-09T05:19:42;15.23;;;3.87;;
21301;SDS011;10810;48.270;9.996;2023-10-09T05:22:19;19.20;;;3.73;;
21301;SDS011;10810;48.270;9.996;2023-10-09T05:25:01;18.70;;;3.47;;
21301;SDS011;10810;48.270;9.996;2023-10-09T05:27:39;17.93;;;3.93;;
21301;SDS011;10810;48.270;9.996;2023-10-09T05:30:15;16.70;;;3.67;;
21301;SDS011;10810;48.270;9.996;2023-10-09T05:32:55;18.60;;;3.37;;
21301;SDS011;10810;48.270;9.996;2023-10-09T05:35:47;18.13;;;3.87;;
21301;SDS011;10810;48.270;9.996;2023-10-09T05:38:30;17.23;;;3.43;;
21301;SDS011;10810;48.270;9.996;2023-10-09T05:41:01;15.10;;;3.30;;
21301;SDS011;10810;48.270;9.996;2023-10-09T05:43:49;18.77;;;3.60;;
21301;SDS011;10810;48.270;9.996;2023-10-09T05:46:34;15.93;;;3.90;;
21301;SDS011;10810;48.270;9.996;2023-10-09T05:49:02;20.73;;;3.80;;
21301;SDS011;10810;48.270;9.996;2023-10-09T05:51:46;16.60;;;3.70;;
21301;SDS011;10810;48.270;9.996;2023-10-09T05:54:18;26.37;;;4.30;;
21301;SDS011;10810;48.270;9.996;2023-10-09T05:57:03;16.70;;;3.53;;
21301;SDS011;10810;48.270;9.996;2023-10-09T05:59:48;15.93;;;4.17;;
21301;SDS011;10810;48.270;9.996;2023-10-09T06:02:33;18.30;;;3.40;;
21301;SDS011;10810;48.270;9.996;2023-10-09T06:05:18;15.03;;;3.70;;
21301;SDS011;10810;48.270;9.996;2023-10-09T06:08:01;14.80;;;3.40;;
21301;SDS011;10810;48.270;9.996;2023-10-09T06:10:32;18.10;;;3.50;;
21301;SDS011;10810;48.270;9.996;2023-10-09T06:13:07;20.23;;;3.73;;
21301;SDS011;10810;48.270;9.996;2023-10-09T06:15:55;16.63;;;3.63;;
21301;SDS011;10810;48.270;9.996;2023-10-09T06:18:40;18.43;;;3.93;;
21301;SDS011;10810;48.270;9.996;2023-10-09T06:21:19;18.70;;;3.77;;
21301;SDS011;10810;48.270;9.996;2023-10-09T06:24:05;27.00;;;3.73;;
21301;SDS011;10810;48.270;9.996;2023-10-09T06:26:40;13.73;;;3.57;;
21301;SDS011;10810;48.270;9.996;2023-10-09T06:29:28;16.27;;;3.70;;
21301;SDS011;10810;48.270;9.996;2023-10-09T06:32:03;19.63;;;4.13;;
21301;SDS011;10810;48.270;9.996;2023-10-09T06:34:59;18.33;;;3.57;;
21301;SDS011;10810;48.270;9.996;2023-10-09T06:37:56;24.30;;;3.87;;
21301;SDS011;10810;48.270;9.996;2023-10-09T06:40:45;21.77;;;3.93;;
21301;SDS011;10810;48.270;9.996;2023-10-09T06:43:48;17.37;;;4.00;;
21301;SDS011;10810;48.270;9.996;2023-10-09T06:46:18;17.83;;;3.93;;
21301;SDS011;10810;48.270;9.996;2023-10-09T06:49:16;17.07;;;3.83;;
21301;SDS011;10810;48.270;9.996;2023-10-09T06:51:58;14.80;;;3.90;;
21301;SDS011;10810;48.270;9.996;2023-10-09T06:54:40;20.50;;;3.93;;
21301;SDS011;10810;48.270;9.996;2023-10-09T06:57:16;12.60;;;3.47;;
21301;SDS011;10810;48.270;9.996;2023-10-09T07:00:04;16.50;;;3.50;;
21301;SDS011;10810;48.270;9.996;2023-10-09T07:02:49;16.30;;;3.97;;
21301;SDS011;10810;48.270;9.996;2023-10-09T07:05:20;16.70;;;4.00;;
21301;SDS011;10810;48.270;9.996;2023-10-09T07:07:57;16.47;;;3.33;;
21301;SDS011;10810;48.270;9.996;2023-10-09T07:10:45;14.50;;;3.80;;
21301;SDS011;10810;48.270;9.996;2023-10-09T07:13:27;17.27;;;4.40;;
21301;SDS011;10810;48.270;9.996;2023-10-09T07:16:02;19.37;;;3.77;;
21301;SDS011;10810;48.270;9.996;2023-10-09T07:18:55;21.30;;;3.97;;
21301;SDS011;10810;48.270;9.996;2023-10-09T07:21:36;17.43;;;3.70;;
21301;SDS011;10810;48.270;9.996;2023-10-09T07:24:10;17.20;;;3.27;;
21301;SDS011;10810;48.270;9.996;2023-10-09T07:26:42;17.17;;;3.97;;
21301;SDS011;10810;48.270;9.996;2023-10-09T07:29:18;19.33;;;3.87;;
21301;SDS011;10810;48.270;9.996;2023-10-09T07:31:48;13.83;;;3.67;;
21301;SDS011;10810;48.270;9.996;2023-10-09T07:34:22;17.50;;;3.63;;
21301;SDS011;10810;48.270;9.996;2023-10-09T07:37:19;16.50;;;4.03;;
21301;SDS011;10810;48.270;9.996;2023-10-09T07:39:48;15.57;;;3.30;;
21301;SDS011;10810;48.270;9.996;2023-10-09T07:42:22;16.00;;;3.83;;
21301;SDS011;10810;48.270;9.996;2023-10-09T07:44:58;14.13;;;3.63;;
21301;SDS011;10810;48.270;9.996;2023-10-09T07:47:37;18.27;;;3.87;;
21301;SDS011;10810;48.270;9.996;2023-10-09T07:50:26;14.83;;;3.27;;
21301;SDS011;10810;48.270;9.996;2023-10-09T07:53:04;17.50;;;3.60;;
21301;SDS011;10810;48.270;9.996;2023-10-09T07:55:52;15.37;;;4.03;;
21301;SDS011;10810;48.270;9.996;2023-10-09T07:58:24;12.63;;;3.30;;
21301;SDS011;10810;48.270;9.996;2023-10-09T08:00:52;17.20;;;3.93;;
21301;SDS011;10810;48.270;9.996;2023-10-09T08:03:41;16.80;;;4.00;;
21301;SDS011;10810;48.270;9.996;2023-10-09T08:06:11;16.13;;;3.50;;
21301;SDS011;10810;48.270;9.996;2023-10-09T08:09:06;15.60;;;3.37;;
21301;SDS011;10810;48.270;9.996;2023-10-09T08:12:04;12.33;;;3.60;;
21301;SDS011;10810;48.270;9.996;2023-10-09T08:14:39;13.57;;;3.80;;
21301;SDS011;10810;48.270;9.996;2023-10-09T08:17:13;18.70;;;3.50;;
21301;SDS011;10810;48.270;9.996;2023-10-09T08:19:41;15.90;;;3.23;;
21301;SDS011;10810;48.270;9.996;2023-10-09T08:22:27;20.73;;;3.53;;
21301;SDS011;10810;48.270;9.996;2023-10-09T08:25:11;18.03;;;3.70;;
21301;SDS011;10810;48.270;9.996;2023-10-09T08:27:55;20.27;;;4.20;;
21301;SDS011;10810;48.270;9.996;2023-10-09T08:30:24;17.63;;;3.63;;
21301;SDS011;10810;48.270;9.996;2023-10-09T08:33:06;11.17;;;3.03;;
21301;SDS011;10810;48.270;9.996;2023-10-09T08:35:47;15.70;;;3.73;;
21301;SDS011;10810;48.270;9.996;2023-10-09T08:38:15;16.40;;;3.73;;
21301;SDS011;10810;48.270;9.996;2023-10-09T08:40:50;20.33;;;3.80;;
21301;SDS011;10810;48.270;9.996;2023-10-09T08:43:23;19.37;;;4.07;;
21301;SDS011;10810;48.270;9.996;2023-10-09T08:45:52;14.43;;;4.00;;
21301;SDS011;10810;48.270;9.996;2023-10-09T08:48:22;15.53;;;3.60;;
21301;SDS011;10810;48.270;9.996;2023-10-09T08:50:52;17.37;;;3.73;;
21301;SDS011;10810;48.270;9.996;2023-10-09T08:53:20;21.67;;;3.77;;
21301;SDS011;10810;48.270;9.996;2023-10-09T08:55:50;21.63;;;4.23;;
21301;SDS011;10810;48.270;9.996;2023-10-09T08:58:17;13.67;;;3.57;;
21301;SDS011;10810;48.270;9.996;2023-10-09T09:00:46;14.43;;;3.43;;
21301;SDS011;10810;48.270;9.996;2023-10-09T09:03:14;11.83;;;3.40;;
21301;SDS011;10810;48.270;9.996;2023-10-09T09:05:47;14.83;;;3.80;;
21301;SDS011;10810;48.270;9.996;2023-10-09T09:08:28;19.13;;;3.60;;
21301;SDS011;10810;48.270;9.996;2023-10-09T09:11:11;15.97;;;4.07;;
21301;SDS011;10810;48.270;9.996;2023-10-09T09:13:41;17.20;;;3.40;;
21301;SDS011;10810;48.270;9.996;2023-10-09T09:16:16;17.17;;;4.03;;
21301;SDS011;10810;48.270;9.996;2023-10-09T09:18:52;14.17;;;3.30;;
21301;SDS011;10810;48.270;9.996;2023-10-09T09:21:28;14.00;;;3.60;;
21301;SDS011;10810;48.270;9.996;2023-10-09T09:23:57;11.50;;;3.50;;
21301;SDS011;10810;48.270;9.996;2023-10-09T09:26:36;16.87;;;3.50;;
21301;SDS011;10810;48.270;9.996;2023-10-09T09:29:10;15.70;;;3.00;;
21301;SDS011;10810;48.270;9.996;2023-10-09T09:31:52;16.20;;;3.90;;
21301;SDS011;10810;48.270;9.996;2023-10-09T09:34:22;12.67;;;3.60;;
21301;SDS011;10810;48.270;9.996;2023-10-09T09:36:54;15.03;;;3.40;;
21301;SDS011;10810;48.270;9.996;2023-10-09T09:39:22;11.87;;;3.07;;
21301;SDS011;10810;48.270;9.996;2023-10-09T09:44:51;13.93;;;3.60;;
21301;SDS011;10810;48.270;9.996;2023-10-09T09:47:19;18.80;;;3.67;;
21301;SDS011;10810;48.270;9.996;2023-10-09T09:49:57;14.13;;;2.97;;
21301;SDS011;10810;48.270;9.996;2023-10-09T09:52:36;13.10;;;3.30;;
21301;SDS011;10810;48.270;9.996;2023-10-09T09:55:12;13.07;;;2.97;;
21301;SDS011;10810;48.270;9.996;2023-10-09T09:57:45;13.83;;;2.90;;
21301;SDS011;10810;48.270;9.996;2023-10-09T10:00:16;13.17;;;3.33;;
21301;SDS011;10810;48.270;9.996;2023-10-09T10:02:56;15.33;;;3.07;;
21301;SDS011;10810;48.270;9.996;2023-10-09T10:05:27;15.63;;;3.13;;
21301;SDS011;10810;48.270;9.996;2023-10-09T10:08:02;17.87;;;3.20;;
21301;SDS011;10810;48.270;9.996;2023-10-09T10:10:58;12.87;;;3.23;;
21301;SDS011;10810;48.270;9.996;2023-10-09T10:17:12;18.77;;;3.42;;
21301;SDS011;10810;48.270;9.996;2023-10-09T10:19:59;16.77;;;3.27;;
21301;SDS011;10810;48.270;9.996;2023-10-09T10:22:49;9.18;;;2.88;;
21301;SDS011;10810;48.270;9.996;2023-10-09T10:25:43;14.20;;;3.50;;
21301;SDS011;10810;48.270;9.996;2023-10-09T10:28:22;12.35;;;3.33;;
21301;SDS011;10810;48.270;9.996;2023-10-09T10:31:03;15.35;;;3.50;;
21301;SDS011;10810;48.270;9.996;2023-10-09T10:36:32;16.73;;;3.30;;
21301;SDS011;10810;48.270;9.996;2023-10-09T10:39:00;10.43;;;2.90;;
21301;SDS011;10810;48.270;9.996;2023-10-09T10:41:34;18.20;;;3.67;;
21301;SDS011;10810;48.270;9.996;2023-10-09T10:44:16;14.27;;;3.10;;
21301;SDS011;10810;48.270;9.996;2023-10-09T10:47:02;11.73;;;3.00;;
21301;SDS011;10810;48.270;9.996;2023-10-09T10:49:30;11.32;;;3.08;;
21301;SDS011;10810;48.270;9.996;2023-10-09T10:52:03;17.67;;;2.95;;
21301;SDS011;10810;48.270;9.996;2023-10-09T10:54:42;13.13;;;3.17;;
21301;SDS011;10810;48.270;9.996;2023-10-09T10:57:34;22.58;;;3.38;;
21301;SDS011;10810;48.270;9.996;2023-10-09T11:00:19;11.43;;;3.25;;
21301;SDS011;10810;48.270;9.996;2023-10-09T11:03:07;13.02;;;3.13;;
21301;SDS011;10810;48.270;9.996;2023-10-09T11:05:50;14.45;;;3.20;;
21301;SDS011;10810;48.270;9.996;2023-10-09T11:08:17;11.57;;;3.00;;
21301;SDS011;10810;48.270;9.996;2023-10-09T11:10:48;21.77;;;3.55;;
21301;SDS011;10810;48.270;9.996;2023-10-09T11:13:21;12.45;;;3.03;;
21301;SDS011;10810;48.270;9.996;2023-10-09T11:16:26;11.85;;;3.00;;
21301;SDS011;10810;48.270;9.996;2023-10-09T11:21:58;11.27;;;3.10;;
21301;SDS011;10810;48.270;9.996;2023-10-09T11:24:40;17.40;;;3.17;;
21301;SDS011;10810;48.270;9.996;2023-10-09T11:27:15;14.20;;;3.20;;
21301;SDS011;10810;48.270;9.996;2023-10-09T11:29:51;15.05;;;3.03;;
21301;SDS011;10810;48.270;9.996;2023-10-09T11:32:22;18.65;;;3.53;;
21301;SDS011;10810;48.270;9.996;2023-10-09T11:35:19;13.27;;;2.90;;
21301;SDS011;10810;48.270;9.996;2023-10-09T11:38:13;13.75;;;2.78;;
21301;SDS011;10810;48.270;9.996;2023-10-09T11:40:48;14.80;;;2.95;;
21301;SDS011;10810;48.270;9.996;2023-10-09T11:43:45;14.27;;;3.00;;
21301;SDS011;10810;48.270;9.996;2023-10-09T11:46:23;15.43;;;3.00;;
21301;SDS011;10810;48.270;9.996;2023-10-09T11:49:15;9.32;;;3.13;;
21301;SDS011;10810;48.270;9.996;2023-10-09T11:55:05;16.67;;;2.97;;
21301;SDS011;10810;48.270;9.996;2023-10-09T11:57:39;13.15;;;3.03;;
21301;SDS011;10810;48.270;9.996;2023-10-09T12:00:07;14.20;;;3.30;;
21301;SDS011;10810;48.270;9.996;2023-10-09T12:02:49;9.77;;;2.92;;
21301;SDS011;10810;48.270;9.996;2023-10-09T12:05:17;15.20;;;2.92;;
21301;SDS011;10810;48.270;9.996;2023-10-09T12:07:44;8.60;;;2.92;;
21301;SDS011;10810;48.270;9.996;2023-10-09T12:10:18;11.10;;;2.88;;
21301;SDS011;10810;48.270;9.996;2023-10-09T12:12:49;12.43;;;3.17;;
21301;SDS011;10810;48.270;9.996;2023-10-09T12:15:17;13.93;;;3.10;;
21301;SDS011;10810;48.270;9.996;2023-10-09T12:17:46;10.60;;;2.97;;
21301;SDS011;10810;48.270;9.996;2023-10-09T12:20:16;14.13;;;3.00;;
21301;SDS011;10810;48.270;9.996;2023-10-09T12:22:57;12.73;;;3.13;;
21301;SDS011;10810;48.270;9.996;2023-10-09T12:25:26;11.63;;;2.80;;
21301;SDS011;10810;48.270;9.996;2023-10-09T12:27:56;10.63;;;3.25;;
21301;SDS011;10810;48.270;9.996;2023-10-09T12:30:26;12.45;;;3.22;;
21301;SDS011;10810;48.270;9.996;2023-10-09T12:32:55;12.57;;;2.67;;
21301;SDS011;10810;48.270;9.996;2023-10-09T12:35:23;17.02;;;2.90;;
21301;SDS011;10810;48.270;9.996;2023-10-09T12:37:51;12.32;;;3.30;;
21301;SDS011;10810;48.270;9.996;2023-10-09T12:40:20;11.65;;;2.80;;
21301;SDS011;10810;48.270;9.996;2023-10-09T12:42:55;9.15;;;3.25;;
21301;SDS011;10810;48.270;9.996;2023-10-09T12:45:24;17.33;;;3.22;;
21301;SDS011;10810;48.270;9.996;2023-10-09T12:47:54;13.00;;;3.20;;
21301;SDS011;10810;48.270;9.996;2023-10-09T12:50:28;13.52;;;3.17;;
21301;SDS011;10810;48.270;9.996;2023-10-09T12:52:58;13.10;;;2.90;;
21301;SDS011;10810;48.270;9.996;2023-10-09T12:55:34;17.67;;;3.22;;
21301;SDS011;10810;48.270;9.996;2023-10-09T12:58:07;12.63;;;3.30;;
21301;SDS011;10810;48.270;9.996;2023-10-09T13:00:34;18.83;;;3.33;;
21301;SDS011;10810;48.270;9.996;2023-10-09T13:03:08;14.25;;;3.13;;
21301;SDS011;10810;48.270;9.996;2023-10-09T13:05:43;11.77;;;2.88;;
21301;SDS011;10810;48.270;9.996;2023-10-09T13:08:17;14.20;;;3.22;;
21301;SDS011;10810;48.270;9.996;2023-10-09T13:10:47;18.50;;;3.80;;
21301;SDS011;10810;48.270;9.996;2023-10-09T13:13:30;12.57;;;2.88;;
21301;SDS011;10810;48.270;9.996;2023-10-09T13:16:08;12.90;;;2.95;;
21301;SDS011;10810;48.270;9.996;2023-10-09T13:18:39;16.77;;;3.72;;
21301;SDS011;10810;48.270;9.996;2023-10-09T13:21:06;14.00;;;3.47;;
21301;SDS011;10810;48.270;9.996;2023-10-09T13:23:34;15.70;;;3.78;;
21301;SDS011;10810;48.270;9.996;2023-10-09T13:26:12;13.13;;;2.88;;
21301;SDS011;10810;48.270;9.996;2023-10-09T13:28:50;11.38;;;2.95;;
21301;SDS011;10810;48.270;9.996;2023-10-09T13:31:18;11.45;;;3.42;;
21301;SDS011;10810;48.270;9.996;2023-10-09T13:33:51;13.38;;;3.40;;
21301;SDS011;10810;48.270;9.996;2023-10-09T13:36:19;11.00;;;3.13;;
21301;SDS011;10810;48.270;9.996;2023-10-09T13:38:52;12.20;;;3.10;;
21301;SDS011;10810;48.270;9.996;2023-10-09T13:41:20;13.25;;;3.13;;
21301;SDS011;10810;48.270;9.996;2023-10-09T13:43:52;15.18;;;3.60;;
21301;SDS011;10810;48.270;9.996;2023-10-09T13:46:21;13.68;;;3.58;;
21301;SDS011;10810;48.270;9.996;2023-10-09T13:48:49;14.02;;;3.42;;
21301;SDS011;10810;48.270;9.996;2023-10-09T13:51:17;14.95;;;3.40;;
21301;SDS011;10810;48.270;9.996;2023-10-09T13:53:48;14.75;;;2.92;;
21301;SDS011;10810;48.270;9.996;2023-10-09T13:56:16;9.82;;;2.75;;
21301;SDS011;10810;48.270;9.996;2023-10-09T13:58:47;14.50;;;3.13;;
21301;SDS011;10810;48.270;9.996;2023-10-09T14:01:17;13.32;;;3.00;;
21301;SDS011;10810;48.270;9.996;2023-10-09T14:03:53;12.43;;;3.03;;
21301;SDS011;10810;48.270;9.996;2023-10-09T14:06:21;15.68;;;3.00;;
21301;SDS011;10810;48.270;9.996;2023-10-09T14:08:56;12.80;;;3.00;;
21301;SDS011;10810;48.270;9.996;2023-10-09T14:11:23;11.85;;;2.97;;
21301;SDS011;10810;48.270;9.996;2023-10-09T14:13:51;13.68;;;3.38;;
21301;SDS011;10810;48.270;9.996;2023-10-09T14:16:19;9.88;;;2.88;;
21301;SDS011;10810;48.270;9.996;2023-10-09T14:18:52;12.98;;;2.92;;
21301;SDS011;10810;48.270;9.996;2023-10-09T14:21:22;13.20;;;2.67;;
21301;SDS011;10810;48.270;9.996;2023-10-09T14:23:51;15.10;;;3.10;;
21301;SDS011;10810;48.270;9.996;2023-10-09T14:26:22;23.75;;;3.95;;
21301;SDS011;10810;48.270;9.996;2023-10-09T14:28:50;13.55;;;2.50;;
21301;SDS011;10810;48.270;9.996;2023-10-09T14:31:18;14.63;;;3.80;;
21301;SDS011;10810;48.270;9.996;2023-10-09T14:33:53;16.67;;;3.33;;
21301;SDS011;10810;48.270;9.996;2023-10-09T14:36:20;13.60;;;3.30;;
21301;SDS011;10810;48.270;9.996;2023-10-09T14:38:48;13.70;;;3.05;;
21301;SDS011;10810;48.270;9.996;2023-10-09T14:41:18;19.20;;;3.08;;
21301;SDS011;10810;48.270;9.996;2023-10-09T14:43:48;12.10;;;3.13;;
21301;SDS011;10810;48.270;9.996;2023-10-09T14:46:15;17.52;;;3.22;;
21301;SDS011;10810;48.270;9.996;2023-10-09T14:48:48;16.02;;;3.40;;
21301;SDS011;10810;48.270;9.996;2023-10-09T14:51:19;15.82;;;2.88;;
21301;SDS011;10810;48.270;9.996;2023-10-09T14:53:52;16.42;;;2.60;;
21301;SDS011;10810;48.270;9.996;2023-10-09T14:56:20;12.52;;;3.35;;
21301;SDS011;10810;48.270;9.996;2023-10-09T14:58:53;12.35;;;2.97;;
21301;SDS011;10810;48.270;9.996;2023-10-09T15:01:21;14.25;;;3.28;;
21301;SDS011;10810;48.270;9.996;2023-10-09T15:03:50;14.52;;;3.33;;
21301;SDS011;10810;48.270;9.996;2023-10-09T15:06:21;11.30;;;2.80;;
21301;SDS011;10810;48.270;9.996;2023-10-09T15:08:49;12.38;;;2.85;;
21301;SDS011;10810;48.270;9.996;2023-10-09T15:11:20;12.73;;;2.60;;
21301;SDS011;10810;48.270;9.996;2023-10-09T15:13:50;14.60;;;3.08;;
21301;SDS011;10810;48.270;9.996;2023-10-09T15:16:18;14.68;;;3.10;;
21301;SDS011;10810;48.270;9.996;2023-10-09T15:18:49;16.70;;;2.97;;
21301;SDS011;10810;48.270;9.996;2023-10-09T15:21:18;12.15;;;2.72;;
21301;SDS011;10810;48.270;9.996;2023-10-09T15:23:49;17.35;;;3.40;;
21301;SDS011;10810;48.270;9.996;2023-10-09T15:26:19;14.15;;;3.10;;
21301;SDS011;10810;48.270;9.996;2023-10-09T15:28:47;12.18;;;2.63;;
21301;SDS011;10810;48.270;9.996;2023-10-09T15:31:16;8.57;;;2.33;;
21301;SDS011;10810;48.270;9.996;2023-10-09T15:33:44;16.40;;;3.22;;
21301;SDS011;10810;48.270;9.996;2023-10-09T15:36:13;18.45;;;3.55;;
21301;SDS011;10810;48.270;9.996;2023-10-09T15:38:43;16.60;;;3.42;;
21301;SDS011;10810;48.270;9.996;2023-10-09T15:41:12;17.42;;;3.50;;